sensor_id;sensor_type;location;lat;lon;timestamp;temperature;humidity
13496;DHT22;6820;49.374;8.452;2024-01-06T00:03:22;6.71;99.99
13496;DHT22;6820;49.374;8.452;2024-01-06T00:07:24;6.64;99.99
13496;DHT22;6820;49.374;8.452;2024-01-06T00:11:25;6.63;99.99
13496;DHT22;6820;49.374;8.452;2024-01-06T00:15:27;6.61;99.99
13496;DHT22;6820;49.374;8.452;2024-01-06T00:19:29;6.58;99.99
13496;DHT22;6820;49.374;8.452;2024-01-06T00:23:30;6.58;99.99
13496;DHT22;6820;49.374;8.452;2024-01-06T00:27:32;6.55;99.99
13496;DHT22;6820;49.374;8.452;2024-01-06T00:31:34;6.53;99.99
13496;DHT22;6820;49.374;8.452;2024-01-06T00:35:36;6.50;99.99
13496;DHT22;6820;49.374;8.452;2024-01-06T00:39:37;6.45;99.99
13496;DHT22;6820;49.374;8.452;2024-01-06T00:43:39;6.42;99.99
13496;DHT22;6820;49.374;8.452;2024-01-06T00:47:41;6.39;99.99
13496;DHT22;6820;49.374;8.452;2024-01-06T00:51:43;6.36;99.99
13496;DHT22;6820;49.374;8.452;2024-01-06T00:55:44;6.32;99.99
13496;DHT22;6820;49.374;8.452;2024-01-06T00:59:46;6.30;99.99
13496;DHT22;6820;49.374;8.452;2024-01-06T01:03:48;6.30;99.99
13496;DHT22;6820;49.374;8.452;2024-01-06T01:07:49;6.28;99.99
13496;DHT22;6820;49.374;8.452;2024-01-06T01:11:51;6.27;99.99
13496;DHT22;6820;49.374;8.452;2024-01-06T01:15:53;6.25;99.99
13496;DHT22;6820;49.374;8.452;2024-01-06T01:19:55;6.24;99.99
13496;DHT22;6820;49.374;8.452;2024-01-06T01:23:56;6.19;99.99
13496;DHT22;6820;49.374;8.452;2024-01-06T01:27:58;6.19;99.99
13496;DHT22;6820;49.374;8.452;2024-01-06T01:32:00;6.20;99.99
13496;DHT22;6820;49.374;8.452;2024-01-06T01:36:02;6.19;99.99
13496;DHT22;6820;49.374;8.452;2024-01-06T01:40:04;6.19;99.99
13496;DHT22;6820;49.374;8.452;2024-01-06T01:44:06;6.19;99.99
13496;DHT22;6820;49.374;8.452;2024-01-06T01:48:08;6.20;99.99
13496;DHT22;6820;49.374;8.452;2024-01-06T01:52:10;6.24;99.99
13496;DHT22;6820;49.374;8.452;2024-01-06T01:56:12;6.20;99.99
13496;DHT22;6820;49.374;8.452;2024-01-06T02:00:14;6.20;99.99
13496;DHT22;6820;49.374;8.452;2024-01-06T02:04:16;6.17;99.99
13496;DHT22;6820;49.374;8.452;2024-01-06T02:08:17;6.16;99.99
13496;DHT22;6820;49.374;8.452;2024-01-06T02:12:19;6.11;99.99
13496;DHT22;6820;49.374;8.452;2024-01-06T02:16:20;6.08;99.99
13496;DHT22;6820;49.374;8.452;2024-01-06T02:20:22;6.06;99.99
13496;DHT22;6820;49.374;8.452;2024-01-06T02:24:25;6.03;99.99
13496;DHT22;6820;49.374;8.452;2024-01-06T02:28:27;6.02;99.99
13496;DHT22;6820;49.374;8.452;2024-01-06T02:32:29;6.01;99.99
13496;DHT22;6820;49.374;8.452;2024-01-06T02:36:30;6.02;99.99
13496;DHT22;6820;49.374;8.452;2024-01-06T02:40:32;6.06;99.99
13496;DHT22;6820;49.374;8.452;2024-01-06T02:44:34;6.11;99.99
13496;DHT22;6820;49.374;8.452;2024-01-06T02:48:35;6.16;99.99
13496;DHT22;6820;49.374;8.452;2024-01-06T02:52:37;6.19;99.99
13496;DHT22;6820;49.374;8.452;2024-01-06T02:56:39;6.24;99.99
13496;DHT22;6820;49.374;8.452;2024-01-06T03:00:40;6.28;99.99
13496;DHT22;6820;49.374;8.452;2024-01-06T03:04:42;6.33;99.99
13496;DHT22;6820;49.374;8.452;2024-01-06T03:08:44;6.36;99.99
13496;DHT22;6820;49.374;8.452;2024-01-06T03:12:45;6.38;99.99
13496;DHT22;6820;49.374;8.452;2024-01-06T03:16:47;6.40;99.99
13496;DHT22;6820;49.374;8.452;2024-01-06T03:20:49;6.43;99.99
13496;DHT22;6820;49.374;8.452;2024-01-06T03:24:50;6.45;99.99
13496;DHT22;6820;49.374;8.452;2024-01-06T03:28:54;6.48;99.99
13496;DHT22;6820;49.374;8.452;2024-01-06T03:32:56;6.51;99.99
13496;DHT22;6820;49.374;8.452;2024-01-06T03:36:57;6.54;99.99
13496;DHT22;6820;49.374;8.452;2024-01-06T03:40:59;6.54;99.99
13496;DHT22;6820;49.374;8.452;2024-01-06T03:45:01;6.55;99.99
13496;DHT22;6820;49.374;8.452;2024-01-06T03:49:02;6.57;99.99
13496;DHT22;6820;49.374;8.452;2024-01-06T03:53:05;6.57;99.99
13496;DHT22;6820;49.374;8.452;2024-01-06T03:57:06;6.57;99.99
13496;DHT22;6820;49.374;8.452;2024-01-06T04:01:08;6.60;99.99
13496;DHT22;6820;49.374;8.452;2024-01-06T04:05:10;6.60;99.99
13496;DHT22;6820;49.374;8.452;2024-01-06T04:09:11;6.60;99.99
13496;DHT22;6820;49.374;8.452;2024-01-06T04:13:16;6.58;99.99
13496;DHT22;6820;49.374;8.452;2024-01-06T04:17:18;6.60;99.99
13496;DHT22;6820;49.374;8.452;2024-01-06T04:21:19;6.57;99.99
13496;DHT22;6820;49.374;8.452;2024-01-06T04:25:21;6.57;99.99
13496;DHT22;6820;49.374;8.452;2024-01-06T04:29:23;6.57;99.99
13496;DHT22;6820;49.374;8.452;2024-01-06T04:33:24;6.57;99.99
13496;DHT22;6820;49.374;8.452;2024-01-06T04:37:26;6.57;99.99
13496;DHT22;6820;49.374;8.452;2024-01-06T04:41:28;6.55;99.99
13496;DHT22;6820;49.374;8.452;2024-01-06T04:45:29;6.55;99.99
13496;DHT22;6820;49.374;8.452;2024-01-06T04:49:31;6.53;99.99
13496;DHT22;6820;49.374;8.452;2024-01-06T04:53:33;6.54;99.99
13496;DHT22;6820;49.374;8.452;2024-01-06T04:57:34;6.51;99.99
13496;DHT22;6820;49.374;8.452;2024-01-06T05:01:37;6.50;99.99
13496;DHT22;6820;49.374;8.452;2024-01-06T05:05:38;6.50;99.99
13496;DHT22;6820;49.374;8.452;2024-01-06T05:09:40;6.50;99.99
13496;DHT22;6820;49.374;8.452;2024-01-06T05:13:42;6.50;99.99
13496;DHT22;6820;49.374;8.452;2024-01-06T05:17:44;6.50;99.99
13496;DHT22;6820;49.374;8.452;2024-01-06T05:21:46;6.50;99.99
13496;DHT22;6820;49.374;8.452;2024-01-06T05:25:49;6.46;99.99
13496;DHT22;6820;49.374;8.452;2024-01-06T05:29:50;6.46;99.99
13496;DHT22;6820;49.374;8.452;2024-01-06T05:33:53;6.46;99.99
13496;DHT22;6820;49.374;8.452;2024-01-06T05:37:55;6.45;99.99
13496;DHT22;6820;49.374;8.452;2024-01-06T05:41:57;6.45;99.99
13496;DHT22;6820;49.374;8.452;2024-01-06T05:45:58;6.45;99.99
13496;DHT22;6820;49.374;8.452;2024-01-06T05:50:00;6.45;99.99
13496;DHT22;6820;49.374;8.452;2024-01-06T05:54:02;6.46;99.99
13496;DHT22;6820;49.374;8.452;2024-01-06T05:58:04;6.43;99.99
13496;DHT22;6820;49.374;8.452;2024-01-06T06:02:05;6.42;99.99
13496;DHT22;6820;49.374;8.452;2024-01-06T06:06:07;6.42;99.99
13496;DHT22;6820;49.374;8.452;2024-01-06T06:10:10;6.42;99.99
13496;DHT22;6820;49.374;8.452;2024-01-06T06:14:12;6.42;99.99
13496;DHT22;6820;49.374;8.452;2024-01-06T06:18:14;6.46;99.99
13496;DHT22;6820;49.374;8.452;2024-01-06T06:22:16;6.43;99.99
13496;DHT22;6820;49.374;8.452;2024-01-06T06:26:17;6.43;99.99
13496;DHT22;6820;49.374;8.452;2024-01-06T06:30:19;6.43;99.99
13496;DHT22;6820;49.374;8.452;2024-01-06T06:34:20;6.43;99.99
13496;DHT22;6820;49.374;8.452;2024-01-06T06:38:22;6.42;99.99
13496;DHT22;6820;49.374;8.452;2024-01-06T06:42:24;6.42;99.99
13496;DHT22;6820;49.374;8.452;2024-01-06T06:46:27;6.42;99.99
13496;DHT22;6820;49.374;8.452;2024-01-06T06:50:29;6.42;99.99
13496;DHT22;6820;49.374;8.452;2024-01-06T06:54:31;6.40;99.99
13496;DHT22;6820;49.374;8.452;2024-01-06T06:58:32;6.43;99.99
13496;DHT22;6820;49.374;8.452;2024-01-06T07:02:34;6.43;99.99
13496;DHT22;6820;49.374;8.452;2024-01-06T07:06:36;6.43;99.99
13496;DHT22;6820;49.374;8.452;2024-01-06T07:10:38;6.45;99.99
13496;DHT22;6820;49.374;8.452;2024-01-06T07:14:39;6.45;99.99
13496;DHT22;6820;49.374;8.452;2024-01-06T07:18:41;6.48;99.99
13496;DHT22;6820;49.374;8.452;2024-01-06T07:22:43;6.48;99.99
13496;DHT22;6820;49.374;8.452;2024-01-06T07:26:45;6.51;99.99
13496;DHT22;6820;49.374;8.452;2024-01-06T07:30:46;6.51;99.99
13496;DHT22;6820;49.374;8.452;2024-01-06T07:34:48;6.50;99.99
13496;DHT22;6820;49.374;8.452;2024-01-06T07:38:50;6.51;99.99
13496;DHT22;6820;49.374;8.452;2024-01-06T07:42:53;6.51;99.99
13496;DHT22;6820;49.374;8.452;2024-01-06T07:46:54;6.51;99.99
13496;DHT22;6820;49.374;8.452;2024-01-06T07:50:56;6.53;99.99
13496;DHT22;6820;49.374;8.452;2024-01-06T07:54:58;6.54;99.99
13496;DHT22;6820;49.374;8.452;2024-01-06T07:58:59;6.54;99.99
13496;DHT22;6820;49.374;8.452;2024-01-06T08:03:02;6.55;99.99
13496;DHT22;6820;49.374;8.452;2024-01-06T08:07:07;6.58;99.99
13496;DHT22;6820;49.374;8.452;2024-01-06T08:11:08;6.57;99.99
13496;DHT22;6820;49.374;8.452;2024-01-06T08:15:10;6.61;99.99
13496;DHT22;6820;49.374;8.452;2024-01-06T08:19:12;6.61;99.99
13496;DHT22;6820;49.374;8.452;2024-01-06T08:23:14;6.61;99.99
13496;DHT22;6820;49.374;8.452;2024-01-06T08:27:17;6.63;99.99
13496;DHT22;6820;49.374;8.452;2024-01-06T08:31:19;6.64;99.99
13496;DHT22;6820;49.374;8.452;2024-01-06T08:35:21;6.71;99.99
13496;DHT22;6820;49.374;8.452;2024-01-06T08:39:23;6.72;99.99
13496;DHT22;6820;49.374;8.452;2024-01-06T08:43:25;6.75;99.99
13496;DHT22;6820;49.374;8.452;2024-01-06T08:47:30;6.78;99.99
13496;DHT22;6820;49.374;8.452;2024-01-06T08:51:33;6.81;99.99
13496;DHT22;6820;49.374;8.452;2024-01-06T08:55:34;6.83;99.99
13496;DHT22;6820;49.374;8.452;2024-01-06T08:59:36;6.82;99.99
13496;DHT22;6820;49.374;8.452;2024-01-06T09:03:38;6.83;99.99
13496;DHT22;6820;49.374;8.452;2024-01-06T09:07:40;6.83;99.99
13496;DHT22;6820;49.374;8.452;2024-01-06T09:11:41;6.86;99.99
13496;DHT22;6820;49.374;8.452;2024-01-06T09:15:45;6.86;99.99
13496;DHT22;6820;49.374;8.452;2024-01-06T09:19:47;6.89;99.99
13496;DHT22;6820;49.374;8.452;2024-01-06T09:23:50;6.91;99.99
13496;DHT22;6820;49.374;8.452;2024-01-06T09:27:51;6.96;99.99
13496;DHT22;6820;49.374;8.452;2024-01-06T09:31:54;7.01;99.99
13496;DHT22;6820;49.374;8.452;2024-01-06T09:35:56;7.11;99.99
13496;DHT22;6820;49.374;8.452;2024-01-06T09:39:58;7.15;99.99
13496;DHT22;6820;49.374;8.452;2024-01-06T09:44:00;7.24;99.99
13496;DHT22;6820;49.374;8.452;2024-01-06T09:48:12;7.30;99.99
13496;DHT22;6820;49.374;8.452;2024-01-06T09:52:15;7.42;99.99
13496;DHT22;6820;49.374;8.452;2024-01-06T09:56:23;7.57;99.99
13496;DHT22;6820;49.374;8.452;2024-01-06T10:00:26;7.67;99.99
13496;DHT22;6820;49.374;8.452;2024-01-06T10:04:30;7.70;99.99
13496;DHT22;6820;49.374;8.452;2024-01-06T10:08:32;7.70;99.99
13496;DHT22;6820;49.374;8.452;2024-01-06T10:12:39;7.71;99.99
13496;DHT22;6820;49.374;8.452;2024-01-06T10:16:42;7.73;99.99
13496;DHT22;6820;49.374;8.452;2024-01-06T10:20:44;7.79;99.99
13496;DHT22;6820;49.374;8.452;2024-01-06T10:24:49;7.84;99.99
13496;DHT22;6820;49.374;8.452;2024-01-06T10:28:50;7.85;99.99
13496;DHT22;6820;49.374;8.452;2024-01-06T10:32:52;7.77;99.99
13496;DHT22;6820;49.374;8.452;2024-01-06T10:36:55;7.82;99.99
13496;DHT22;6820;49.374;8.452;2024-01-06T10:41:01;7.88;99.99
13496;DHT22;6820;49.374;8.452;2024-01-06T10:45:09;7.89;99.99
13496;DHT22;6820;49.374;8.452;2024-01-06T10:49:11;7.95;99.99
13496;DHT22;6820;49.374;8.452;2024-01-06T10:53:14;8.04;99.99
13496;DHT22;6820;49.374;8.452;2024-01-06T10:57:17;8.12;99.99
13496;DHT22;6820;49.374;8.452;2024-01-06T11:01:20;8.10;99.99
13496;DHT22;6820;49.374;8.452;2024-01-06T11:05:28;8.12;99.99
13496;DHT22;6820;49.374;8.452;2024-01-06T11:09:31;8.17;99.99
13496;DHT22;6820;49.374;8.452;2024-01-06T11:13:36;8.17;99.99
13496;DHT22;6820;49.374;8.452;2024-01-06T11:17:55;8.20;99.99
13496;DHT22;6820;49.374;8.452;2024-01-06T11:26:28;8.14;99.99
13496;DHT22;6820;49.374;8.452;2024-01-06T11:30:31;8.14;99.99
13496;DHT22;6820;49.374;8.452;2024-01-06T11:34:37;8.14;99.99
13496;DHT22;6820;49.374;8.452;2024-01-06T11:38:39;8.18;99.99
13496;DHT22;6820;49.374;8.452;2024-01-06T11:42:45;8.17;99.99
13496;DHT22;6820;49.374;8.452;2024-01-06T11:46:48;8.12;99.99
13496;DHT22;6820;49.374;8.452;2024-01-06T11:50:52;8.07;99.99
13496;DHT22;6820;49.374;8.452;2024-01-06T11:54:54;8.06;99.99
13496;DHT22;6820;49.374;8.452;2024-01-06T11:58:57;8.02;99.99
13496;DHT22;6820;49.374;8.452;2024-01-06T12:02:59;8.03;99.99
13496;DHT22;6820;49.374;8.452;2024-01-06T12:07:08;8.10;99.99
13496;DHT22;6820;49.374;8.452;2024-01-06T12:11:11;8.03;99.99
13496;DHT22;6820;49.374;8.452;2024-01-06T12:15:12;8.00;99.99
13496;DHT22;6820;49.374;8.452;2024-01-06T12:19:14;7.99;99.99
13496;DHT22;6820;49.374;8.452;2024-01-06T12:23:26;7.96;99.99
13496;DHT22;6820;49.374;8.452;2024-01-06T12:27:30;7.95;99.99
13496;DHT22;6820;49.374;8.452;2024-01-06T12:31:32;7.96;99.99
13496;DHT22;6820;49.374;8.452;2024-01-06T12:35:39;7.96;99.99
13496;DHT22;6820;49.374;8.452;2024-01-06T12:39:40;7.94;99.99
13496;DHT22;6820;49.374;8.452;2024-01-06T12:43:43;7.95;99.99
13496;DHT22;6820;49.374;8.452;2024-01-06T12:47:45;8.00;99.99
13496;DHT22;6820;49.374;8.452;2024-01-06T12:51:47;8.03;99.99
13496;DHT22;6820;49.374;8.452;2024-01-06T12:55:49;8.06;99.99
13496;DHT22;6820;49.374;8.452;2024-01-06T12:59:51;8.07;99.99
13496;DHT22;6820;49.374;8.452;2024-01-06T13:03:53;8.13;99.99
13496;DHT22;6820;49.374;8.452;2024-01-06T13:07:55;8.17;99.99
13496;DHT22;6820;49.374;8.452;2024-01-06T13:11:59;8.18;99.99
13496;DHT22;6820;49.374;8.452;2024-01-06T13:16:02;8.18;99.99
13496;DHT22;6820;49.374;8.452;2024-01-06T13:20:05;8.17;99.99
13496;DHT22;6820;49.374;8.452;2024-01-06T13:24:09;8.13;99.99
13496;DHT22;6820;49.374;8.452;2024-01-06T13:28:11;8.09;99.99
13496;DHT22;6820;49.374;8.452;2024-01-06T13:32:13;8.14;99.99
13496;DHT22;6820;49.374;8.452;2024-01-06T13:36:16;8.20;99.99
13496;DHT22;6820;49.374;8.452;2024-01-06T13:40:19;8.20;99.99
13496;DHT22;6820;49.374;8.452;2024-01-06T13:44:21;8.28;99.99
13496;DHT22;6820;49.374;8.452;2024-01-06T13:48:24;8.32;99.99
13496;DHT22;6820;49.374;8.452;2024-01-06T13:52:25;8.39;99.99
13496;DHT22;6820;49.374;8.452;2024-01-06T13:56:28;8.40;99.99
13496;DHT22;6820;49.374;8.452;2024-01-06T14:00:29;8.45;99.99
13496;DHT22;6820;49.374;8.452;2024-01-06T14:04:31;8.47;99.99
13496;DHT22;6820;49.374;8.452;2024-01-06T14:08:33;8.49;99.99
13496;DHT22;6820;49.374;8.452;2024-01-06T14:12:35;8.47;99.99
13496;DHT22;6820;49.374;8.452;2024-01-06T14:16:37;8.40;99.99
13496;DHT22;6820;49.374;8.452;2024-01-06T14:20:39;8.36;99.99
13496;DHT22;6820;49.374;8.452;2024-01-06T14:24:41;8.31;99.99
13496;DHT22;6820;49.374;8.452;2024-01-06T14:28:43;8.28;99.99
13496;DHT22;6820;49.374;8.452;2024-01-06T14:32:45;8.28;99.99
13496;DHT22;6820;49.374;8.452;2024-01-06T14:36:47;8.28;99.99
13496;DHT22;6820;49.374;8.452;2024-01-06T14:40:49;8.24;99.99
13496;DHT22;6820;49.374;8.452;2024-01-06T14:44:51;8.24;99.99
13496;DHT22;6820;49.374;8.452;2024-01-06T14:48:52;8.21;99.99
13496;DHT22;6820;49.374;8.452;2024-01-06T14:52:56;8.18;99.99
13496;DHT22;6820;49.374;8.452;2024-01-06T14:56:58;8.14;99.99
13496;DHT22;6820;49.374;8.452;2024-01-06T15:01:00;8.12;99.99
13496;DHT22;6820;49.374;8.452;2024-01-06T15:05:02;8.10;99.99
13496;DHT22;6820;49.374;8.452;2024-01-06T15:09:05;8.09;99.99
13496;DHT22;6820;49.374;8.452;2024-01-06T15:13:07;8.07;99.99
13496;DHT22;6820;49.374;8.452;2024-01-06T15:17:09;8.04;99.99
13496;DHT22;6820;49.374;8.452;2024-01-06T15:21:11;8.03;99.99
13496;DHT22;6820;49.374;8.452;2024-01-06T15:25:13;8.02;99.99
13496;DHT22;6820;49.374;8.452;2024-01-06T15:29:15;7.96;99.99
13496;DHT22;6820;49.374;8.452;2024-01-06T15:33:17;7.95;99.99
13496;DHT22;6820;49.374;8.452;2024-01-06T15:37:19;7.92;99.99
13496;DHT22;6820;49.374;8.452;2024-01-06T15:41:21;7.89;99.99
13496;DHT22;6820;49.374;8.452;2024-01-06T15:45:22;7.88;99.99
13496;DHT22;6820;49.374;8.452;2024-01-06T15:49:24;7.84;99.99
13496;DHT22;6820;49.374;8.452;2024-01-06T15:53:25;7.82;99.99
13496;DHT22;6820;49.374;8.452;2024-01-06T15:57:27;7.81;99.99
13496;DHT22;6820;49.374;8.452;2024-01-06T16:01:31;7.77;99.99
13496;DHT22;6820;49.374;8.452;2024-01-06T16:05:33;7.74;99.99
13496;DHT22;6820;49.374;8.452;2024-01-06T16:09:35;7.76;99.99
13496;DHT22;6820;49.374;8.452;2024-01-06T16:13:36;7.71;99.99
13496;DHT22;6820;49.374;8.452;2024-01-06T16:17:38;7.70;99.99
13496;DHT22;6820;49.374;8.452;2024-01-06T16:21:40;7.69;99.99
13496;DHT22;6820;49.374;8.452;2024-01-06T16:25:43;7.69;99.99
13496;DHT22;6820;49.374;8.452;2024-01-06T16:29:45;7.66;99.99
13496;DHT22;6820;49.374;8.452;2024-01-06T16:33:46;7.66;99.99
13496;DHT22;6820;49.374;8.452;2024-01-06T16:37:48;7.62;99.99
13496;DHT22;6820;49.374;8.452;2024-01-06T16:41:52;7.60;99.99
13496;DHT22;6820;49.374;8.452;2024-01-06T16:45:53;7.58;99.99
13496;DHT22;6820;49.374;8.452;2024-01-06T16:49:55;7.60;99.99
13496;DHT22;6820;49.374;8.452;2024-01-06T16:53:57;7.58;99.99
13496;DHT22;6820;49.374;8.452;2024-01-06T16:57:58;7.55;99.99
13496;DHT22;6820;49.374;8.452;2024-01-06T17:02:01;7.57;99.99
13496;DHT22;6820;49.374;8.452;2024-01-06T17:06:05;7.55;99.99
13496;DHT22;6820;49.374;8.452;2024-01-06T17:10:08;7.55;99.99
13496;DHT22;6820;49.374;8.452;2024-01-06T17:14:12;7.55;99.99
13496;DHT22;6820;49.374;8.452;2024-01-06T17:18:14;7.57;99.99
13496;DHT22;6820;49.374;8.452;2024-01-06T17:22:16;7.58;99.99
13496;DHT22;6820;49.374;8.452;2024-01-06T17:26:18;7.57;99.99
13496;DHT22;6820;49.374;8.452;2024-01-06T17:30:20;7.60;99.99
13496;DHT22;6820;49.374;8.452;2024-01-06T17:34:22;7.58;99.99
13496;DHT22;6820;49.374;8.452;2024-01-06T17:38:23;7.50;99.99
13496;DHT22;6820;49.374;8.452;2024-01-06T17:42:25;7.41;99.99
13496;DHT22;6820;49.374;8.452;2024-01-06T17:46:27;7.36;99.99
13496;DHT22;6820;49.374;8.452;2024-01-06T17:50:30;7.27;99.99
13496;DHT22;6820;49.374;8.452;2024-01-06T17:54:31;7.23;99.99
13496;DHT22;6820;49.374;8.452;2024-01-06T17:58:33;7.16;99.99
13496;DHT22;6820;49.374;8.452;2024-01-06T18:02:35;7.15;99.99
13496;DHT22;6820;49.374;8.452;2024-01-06T18:06:39;7.09;99.99
13496;DHT22;6820;49.374;8.452;2024-01-06T18:10:44;7.08;99.99
13496;DHT22;6820;49.374;8.452;2024-01-06T18:14:46;7.00;99.99
13496;DHT22;6820;49.374;8.452;2024-01-06T18:18:47;6.94;99.99
13496;DHT22;6820;49.374;8.452;2024-01-06T18:22:50;6.94;99.99
13496;DHT22;6820;49.374;8.452;2024-01-06T18:26:51;6.94;99.99
13496;DHT22;6820;49.374;8.452;2024-01-06T18:30:53;6.89;99.99
13496;DHT22;6820;49.374;8.452;2024-01-06T18:34:55;6.81;99.99
13496;DHT22;6820;49.374;8.452;2024-01-06T18:38:57;6.78;99.99
13496;DHT22;6820;49.374;8.452;2024-01-06T18:42:58;6.71;99.99
13496;DHT22;6820;49.374;8.452;2024-01-06T18:47:00;6.72;99.99
13496;DHT22;6820;49.374;8.452;2024-01-06T18:51:02;6.69;99.99
13496;DHT22;6820;49.374;8.452;2024-01-06T18:55:04;6.72;99.99
13496;DHT22;6820;49.374;8.452;2024-01-06T19:04:04;6.65;99.99
13496;DHT22;6820;49.374;8.452;2024-01-06T19:08:07;6.61;99.99
13496;DHT22;6820;49.374;8.452;2024-01-06T19:12:09;6.63;99.99
13496;DHT22;6820;49.374;8.452;2024-01-06T19:16:11;6.61;99.99
13496;DHT22;6820;49.374;8.452;2024-01-06T19:20:13;6.60;99.99
13496;DHT22;6820;49.374;8.452;2024-01-06T19:24:15;6.57;99.99
13496;DHT22;6820;49.374;8.452;2024-01-06T19:28:33;6.55;99.99
13496;DHT22;6820;49.374;8.452;2024-01-06T19:32:36;6.54;99.99
13496;DHT22;6820;49.374;8.452;2024-01-06T19:36:37;6.53;99.99
13496;DHT22;6820;49.374;8.452;2024-01-06T19:40:39;6.51;99.99
13496;DHT22;6820;49.374;8.452;2024-01-06T19:44:41;6.50;99.99
13496;DHT22;6820;49.374;8.452;2024-01-06T19:48:44;6.48;99.99
13496;DHT22;6820;49.374;8.452;2024-01-06T19:52:46;6.46;99.99
13496;DHT22;6820;49.374;8.452;2024-01-06T19:56:48;6.48;99.99
13496;DHT22;6820;49.374;8.452;2024-01-06T20:00:54;6.46;99.99
13496;DHT22;6820;49.374;8.452;2024-01-06T20:04:56;6.48;99.99
13496;DHT22;6820;49.374;8.452;2024-01-06T20:08:58;6.45;99.99
13496;DHT22;6820;49.374;8.452;2024-01-06T20:13:00;6.45;99.99
13496;DHT22;6820;49.374;8.452;2024-01-06T20:17:01;6.42;99.99
13496;DHT22;6820;49.374;8.452;2024-01-06T20:21:04;6.35;99.99
13496;DHT22;6820;49.374;8.452;2024-01-06T20:25:14;6.33;99.99
13496;DHT22;6820;49.374;8.452;2024-01-06T20:29:16;6.28;99.99
13496;DHT22;6820;49.374;8.452;2024-01-06T20:33:17;6.30;99.99
13496;DHT22;6820;49.374;8.452;2024-01-06T20:37:21;6.28;99.99
13496;DHT22;6820;49.374;8.452;2024-01-06T20:41:22;6.21;99.99
13496;DHT22;6820;49.374;8.452;2024-01-06T20:45:24;6.21;99.99
13496;DHT22;6820;49.374;8.452;2024-01-06T20:49:28;6.20;99.99
13496;DHT22;6820;49.374;8.452;2024-01-06T20:53:32;6.20;99.99
13496;DHT22;6820;49.374;8.452;2024-01-06T20:57:35;6.38;99.99
13496;DHT22;6820;49.374;8.452;2024-01-06T21:01:36;6.43;99.99
13496;DHT22;6820;49.374;8.452;2024-01-06T21:05:39;6.51;99.99
13496;DHT22;6820;49.374;8.452;2024-01-06T21:09:42;6.40;99.99
13496;DHT22;6820;49.374;8.452;2024-01-06T21:13:44;6.40;99.99
13496;DHT22;6820;49.374;8.452;2024-01-06T21:17:46;6.35;99.99
13496;DHT22;6820;49.374;8.452;2024-01-06T21:21:47;6.36;99.99
13496;DHT22;6820;49.374;8.452;2024-01-06T21:25:52;6.36;99.99
13496;DHT22;6820;49.374;8.452;2024-01-06T21:29:54;6.33;99.99
13496;DHT22;6820;49.374;8.452;2024-01-06T21:33:55;6.30;99.99
13496;DHT22;6820;49.374;8.452;2024-01-06T21:37:57;6.25;99.99
13496;DHT22;6820;49.374;8.452;2024-01-06T21:41:59;6.27;99.99
13496;DHT22;6820;49.374;8.452;2024-01-06T21:46:01;6.20;99.99
13496;DHT22;6820;49.374;8.452;2024-01-06T21:50:03;6.16;99.99
13496;DHT22;6820;49.374;8.452;2024-01-06T21:54:05;6.14;99.99
13496;DHT22;6820;49.374;8.452;2024-01-06T21:58:08;6.13;99.99
13496;DHT22;6820;49.374;8.452;2024-01-06T22:02:10;6.10;99.99
13496;DHT22;6820;49.374;8.452;2024-01-06T22:06:11;6.08;99.99
13496;DHT22;6820;49.374;8.452;2024-01-06T22:10:13;6.03;99.99
13496;DHT22;6820;49.374;8.452;2024-01-06T22:14:15;6.02;99.99
13496;DHT22;6820;49.374;8.452;2024-01-06T22:18:17;5.99;99.99
13496;DHT22;6820;49.374;8.452;2024-01-06T22:22:19;5.95;99.99
13496;DHT22;6820;49.374;8.452;2024-01-06T22:26:21;5.96;99.99
13496;DHT22;6820;49.374;8.452;2024-01-06T22:30:23;5.90;99.99
13496;DHT22;6820;49.374;8.452;2024-01-06T22:34:25;5.85;99.99
13496;DHT22;6820;49.374;8.452;2024-01-06T22:38:27;5.85;99.99
13496;DHT22;6820;49.374;8.452;2024-01-06T22:42:33;5.84;99.99
13496;DHT22;6820;49.374;8.452;2024-01-06T22:46:34;5.84;99.99
13496;DHT22;6820;49.374;8.452;2024-01-06T22:50:36;5.85;99.99
13496;DHT22;6820;49.374;8.452;2024-01-06T22:54:38;5.87;99.99
13496;DHT22;6820;49.374;8.452;2024-01-06T22:58:39;5.85;99.99
13496;DHT22;6820;49.374;8.452;2024-01-06T23:02:42;5.81;99.99
13496;DHT22;6820;49.374;8.452;2024-01-06T23:06:45;5.81;99.99
13496;DHT22;6820;49.374;8.452;2024-01-06T23:10:47;5.77;99.99
13496;DHT22;6820;49.374;8.452;2024-01-06T23:14:49;5.75;99.99
13496;DHT22;6820;49.374;8.452;2024-01-06T23:18:52;5.73;99.99
13496;DHT22;6820;49.374;8.452;2024-01-06T23:22:58;5.70;99.99
13496;DHT22;6820;49.374;8.452;2024-01-06T23:27:00;5.73;99.99
13496;DHT22;6820;49.374;8.452;2024-01-06T23:31:02;5.70;99.99
13496;DHT22;6820;49.374;8.452;2024-01-06T23:35:04;5.69;99.99
13496;DHT22;6820;49.374;8.452;2024-01-06T23:39:06;5.70;99.99
13496;DHT22;6820;49.374;8.452;2024-01-06T23:43:08;5.70;99.99
13496;DHT22;6820;49.374;8.452;2024-01-06T23:47:11;5.69;99.99
13496;DHT22;6820;49.374;8.452;2024-01-06T23:51:16;5.67;99.99
13496;DHT22;6820;49.374;8.452;2024-01-06T23:55:21;5.65;99.99
13496;DHT22;6820;49.374;8.452;2024-01-06T23:59:22;5.62;99.99
